Terminal Aerodrome Forecast
Issued by NWS

Home | Current Version | Previous Version | Text Only | Print | Product List | Glossary On
Versions: 1 2 3 4 5 6 7 8 9 10 11 12 13 14 15 16
000
FTUS42 KMHX 052358 CCA
TAFPGV
TAF COR
KPGV 052358Z 0600/0624 20007KT P6SM SCT250
     FM061000 20003KT 6SM BR SCT007
     FM061300 21007KT P6SM SCT035
     FM061600 21009KT P6SM VCTS SCT040CB
      AMD LTD TO CLD VIS AND WIND=

USA.gov is the U.S. government's official web portal to all federal, state and local government web resources and services.